Time;durP1;ratioP1;P1;durP2;ratioP2;P2;SDS_P1;SDS_P2;PMS_P1;PMS_P2;Temp;Humidity;BMP_temperature;BMP_pressure;BME280_temperature;BME280_humidity;BME280_pressure;Samples;Min_cycle;Max_cycle;Signal;HPM_P1;HPM_P2
2024/03/19 00:01:40;;;;;;;5.53;2.65;;;;;;;;;;4869342;29;20041;-73
2024/03/19 00:04:09;;;;;;;4.78;3.05;;;;;;;;;;4868249;29;20049;-72
2024/03/19 00:06:37;;;;;;;7.03;3.15;;;;;;;;;;4868755;29;20056;-72
2024/03/19 00:09:08;;;;;;;8.02;3.28;;;;;;;;;;4868867;29;20053;-72
2024/03/19 00:11:38;;;;;;;7.45;2.97;;;;;;;;;;4868446;29;20064;-72
2024/03/19 00:14:06;;;;;;;5.47;3.00;;;;;;;;;;4853342;29;20068;-72
2024/03/19 00:16:36;;;;;;;4.70;2.53;;;;;;;;;;4870053;29;20394;-73
2024/03/19 00:19:04;;;;;;;4.85;3.15;;;;;;;;;;4852905;29;20045;-72
2024/03/19 00:21:33;;;;;;;10.93;3.33;;;;;;;;;;4866615;29;20068;-72
2024/03/19 00:24:02;;;;;;;5.80;2.95;;;;;;;;;;4849129;29;20060;-73
2024/03/19 00:26:36;;;;;;;13.60;3.40;;;;;;;;;;4861437;29;20037;-71
2024/03/19 00:29:07;;;;;;;6.80;3.67;;;;;;;;;;4868170;29;20053;-72
2024/03/19 00:31:36;;;;;;;7.45;3.50;;;;;;;;;;4865080;29;20048;-72
2024/03/19 00:34:04;;;;;;;5.18;3.58;;;;;;;;;;4869692;29;20052;-72
2024/03/19 00:36:33;;;;;;;9.98;3.30;;;;;;;;;;4870041;29;20059;-72
2024/03/19 00:39:01;;;;;;;8.35;3.30;;;;;;;;;;4868423;29;20049;-72
2024/03/19 00:41:30;;;;;;;5.07;3.08;;;;;;;;;;4868449;29;20688;-72
2024/03/19 00:43:58;;;;;;;4.28;3.42;;;;;;;;;;4868572;29;20063;-72
2024/03/19 00:46:27;;;;;;;;;;;;;;;;;;4868845;29;20056;-75
2024/03/19 00:48:55;;;;;;;5.25;3.50;;;;;;;;;;4869483;29;20391;-72
2024/03/19 00:51:24;;;;;;;5.65;3.30;;;;;;;;;;4868809;29;20056;-72
2024/03/19 00:53:52;;;;;;;5.65;3.30;;;;;;;;;;4868183;29;20060;-71
2024/03/19 00:56:21;;;;;;;10.50;4.20;;;;;;;;;;4864589;29;20061;-72
2024/03/19 00:58:50;;;;;;;7.88;3.42;;;;;;;;;;4866542;29;20060;-71
2024/03/19 01:01:18;;;;;;;4.38;3.33;;;;;;;;;;4866765;29;20052;-72
2024/03/19 01:03:47;;;;;;;6.72;3.30;;;;;;;;;;4866015;29;20512;-74
2024/03/19 01:06:16;;;;;;;5.28;3.40;;;;;;;;;;4852131;29;20044;-72
2024/03/19 01:08:45;;;;;;;10.25;4.10;;;;;;;;;;4867856;29;20068;-73
2024/03/19 01:11:13;;;;;;;;;;;;;;;;;;4852300;29;20519;-72
2024/03/19 01:13:43;;;;;;;5.22;3.53;;;;;;;;;;4868616;29;19931;-72
2024/03/19 01:16:12;;;;;;;9.52;3.45;;;;;;;;;;4867646;29;20045;-72
2024/03/19 01:18:40;;;;;;;7.97;3.90;;;;;;;;;;4867693;29;20075;-72
2024/03/19 01:21:09;;;;;;;6.50;3.67;;;;;;;;;;4867935;29;20045;-74
2024/03/19 01:23:38;;;;;;;;;;;;;;;;;;4867687;29;20523;-72
2024/03/19 01:26:06;;;;;;;5.32;3.53;;;;;;;;;;4868126;29;20646;-72
2024/03/19 01:28:35;;;;;;;7.20;3.38;;;;;;;;;;4866331;29;20052;-72
2024/03/19 01:31:04;;;;;;;9.40;3.67;;;;;;;;;;4866112;29;20048;-73
2024/03/19 01:33:32;;;;;;;8.85;3.40;;;;;;;;;;4851788;29;20119;-72
2024/03/19 01:36:00;;;;;;;8.77;3.25;;;;;;;;;;4867159;29;20056;-73
2024/03/19 01:38:29;;;;;;;5.95;3.42;;;;;;;;;;4867359;29;20049;-72
2024/03/19 01:40:57;;;;;;;;;;;;;;;;;;4867819;29;20060;-72
2024/03/19 01:43:25;;;;;;;5.63;3.58;;;;;;;;;;4867273;29;21027;-73
2024/03/19 01:46:07;;;;;;;5.60;3.33;;;;;;;;;;4867541;29;20542;-73
2024/03/19 01:48:38;;;;;;;7.20;3.63;;;;;;;;;;4867369;29;20041;-73
2024/03/19 01:51:09;;;;;;;3.72;2.95;;;;;;;;;;4867751;29;20049;-72
2024/03/19 01:53:38;;;;;;;5.80;3.70;;;;;;;;;;4867294;29;20527;-72
2024/03/19 01:56:07;;;;;;;4.40;3.22;;;;;;;;;;4867095;29;20053;-71
2024/03/19 01:58:37;;;;;;;9.85;3.33;;;;;;;;;;4867384;29;20049;-72
2024/03/19 02:01:05;;;;;;;6.25;3.10;;;;;;;;;;4867506;29;20508;-73
2024/03/19 02:03:35;;;;;;;10.52;3.58;;;;;;;;;;4867632;29;20049;-73
2024/03/19 02:06:04;;;;;;;5.95;3.03;;;;;;;;;;4852763;29;20064;-73
2024/03/19 02:08:32;;;;;;;7.93;3.40;;;;;;;;;;4867571;29;20049;-72
2024/03/19 02:11:00;;;;;;;7.78;3.30;;;;;;;;;;4867941;29;20052;-73
2024/03/19 02:13:29;;;;;;;7.18;3.22;;;;;;;;;;4866844;29;20045;-73
2024/03/19 02:15:57;;;;;;;7.18;3.42;;;;;;;;;;4867343;29;20063;-73
2024/03/19 02:18:26;;;;;;;8.32;3.45;;;;;;;;;;4867170;29;20053;-72
2024/03/19 02:20:55;;;;;;;6.68;4.07;;;;;;;;;;4867017;29;20504;-73
2024/03/19 02:23:23;;;;;;;;;;;;;;;;;;4870566;29;20439;-73
2024/03/19 02:25:51;;;;;;;6.40;3.28;;;;;;;;;;4870521;29;19938;-72
2024/03/19 02:28:20;;;;;;;4.97;3.47;;;;;;;;;;4869998;29;20053;-75
2024/03/19 02:30:48;;;;;;;10.50;4.13;;;;;;;;;;4870885;29;20060;-73
2024/03/19 02:33:17;;;;;;;9.60;3.55;;;;;;;;;;4871068;29;20115;-73
2024/03/19 02:35:45;;;;;;;8.48;3.88;;;;;;;;;;4870958;29;20045;-72
2024/03/19 02:38:14;;;;;;;5.97;3.25;;;;;;;;;;4871009;29;20053;-73
2024/03/19 02:40:44;;;;;;;12.93;3.95;;;;;;;;;;4870720;29;20599;-72
2024/03/19 02:43:12;;;;;;;10.32;3.90;;;;;;;;;;4870283;29;20052;-72
2024/03/19 02:45:41;;;;;;;10.38;3.42;;;;;;;;;;4870644;29;20418;-72
2024/03/19 02:48:10;;;;;;;9.27;3.20;;;;;;;;;;4870436;29;20080;-72
2024/03/19 02:50:39;;;;;;;;;;;;;;;;;;4870871;29;20041;-72
2024/03/19 02:53:07;;;;;;;11.18;3.97;;;;;;;;;;4871046;29;19924;-72
2024/03/19 02:55:35;;;;;;;6.53;3.22;;;;;;;;;;4870143;29;20056;-72
2024/03/19 02:58:04;;;;;;;6.32;4.03;;;;;;;;;;4870161;29;20060;-73
2024/03/19 03:00:32;;;;;;;5.68;3.88;;;;;;;;;;4870089;29;20050;-72
2024/03/19 03:03:01;;;;;;;8.65;4.00;;;;;;;;;;4870026;29;20045;-72
2024/03/19 03:05:30;;;;;;;6.78;3.83;;;;;;;;;;4869961;29;20065;-73
2024/03/19 03:07:58;;;;;;;7.53;4.35;;;;;;;;;;4869633;29;20053;-72
2024/03/19 03:10:26;;;;;;;5.22;3.30;;;;;;;;;;4869898;29;20044;-73
2024/03/19 03:12:55;;;;;;;7.30;3.20;;;;;;;;;;4870156;29;20076;-73
2024/03/19 03:15:23;;;;;;;5.47;3.78;;;;;;;;;;4869986;29;20049;-72
2024/03/19 03:17:52;;;;;;;11.63;3.78;;;;;;;;;;4869415;29;20060;-72
2024/03/19 03:20:21;;;;;;;11.02;3.80;;;;;;;;;;4854160;29;20536;-72
2024/03/19 03:22:50;;;;;;;7.28;3.35;;;;;;;;;;4870080;29;20052;-73
2024/03/19 03:25:18;;;;;;;10.88;4.15;;;;;;;;;;4870219;29;20065;-72
2024/03/19 03:27:47;;;;;;;8.48;3.80;;;;;;;;;;4869938;29;20049;-73
2024/03/19 03:30:16;;;;;;;7.28;4.28;;;;;;;;;;4869947;29;20051;-72
2024/03/19 03:32:46;;;;;;;6.35;4.30;;;;;;;;;;4869493;29;20045;-72
2024/03/19 03:35:15;;;;;;;6.22;3.70;;;;;;;;;;4868585;29;20501;-72
2024/03/19 03:37:44;;;;;;;9.85;3.83;;;;;;;;;;4870247;29;20512;-72
2024/03/19 03:40:18;;;;;;;6.57;3.95;;;;;;;;;;4869504;29;20056;-73
2024/03/19 03:42:47;;;;;;;;;;;;;;;;;;4870042;29;20072;-73
2024/03/19 03:45:20;;;;;;;10.27;3.83;;;;;;;;;;4869225;29;19924;-71
2024/03/19 03:47:49;;;;;;;10.45;3.92;;;;;;;;;;4869684;29;20059;-73
2024/03/19 03:50:18;;;;;;;6.05;3.67;;;;;;;;;;4868946;29;20595;-73
2024/03/19 03:52:46;;;;;;;5.90;3.75;;;;;;;;;;4869510;29;20060;-72
2024/03/19 03:55:15;;;;;;;6.53;3.30;;;;;;;;;;4869467;29;20520;-73
2024/03/19 03:57:45;;;;;;;4.43;3.75;;;;;;;;;;4868913;29;20053;-72
2024/03/19 04:00:17;;;;;;;6.35;3.75;;;;;;;;;;4868898;29;20048;-72
2024/03/19 04:02:51;;;;;;;7.43;3.88;;;;;;;;;;4869228;29;20053;-73
2024/03/19 04:05:19;;;;;;;4.90;3.92;;;;;;;;;;4869164;29;20068;-74
2024/03/19 04:07:48;;;;;;;8.13;3.80;;;;;;;;;;4868700;29;20512;-73
2024/03/19 04:10:17;;;;;;;5.40;3.22;;;;;;;;;;4868582;29;20060;-72
2024/03/19 04:12:46;;;;;;;6.28;3.25;;;;;;;;;;4868798;29;20049;-73
2024/03/19 04:15:16;;;;;;;8.70;4.15;;;;;;;;;;4869362;29;20424;-72
2024/03/19 04:17:44;;;;;;;6.47;3.97;;;;;;;;;;4868968;29;20084;-72
2024/03/19 04:20:15;;;;;;;7.72;4.20;;;;;;;;;;4869709;29;20048;-72
2024/03/19 04:22:44;;;;;;;5.22;3.65;;;;;;;;;;4869018;29;20049;-72
2024/03/19 04:25:12;;;;;;;7.03;4.07;;;;;;;;;;4868562;29;20053;-72
2024/03/19 04:27:41;;;;;;;7.47;3.63;;;;;;;;;;4868483;29;20420;-73
2024/03/19 04:30:10;;;;;;;5.00;4.00;;;;;;;;;;4868813;29;20496;-72
2024/03/19 04:32:39;;;;;;;6.57;3.83;;;;;;;;;;4868768;29;20061;-71
2024/03/19 04:35:08;;;;;;;4.90;3.78;;;;;;;;;;4853338;29;20053;-73
2024/03/19 04:37:37;;;;;;;6.95;4.03;;;;;;;;;;4868772;29;20052;-72
2024/03/19 04:40:07;;;;;;;6.55;3.67;;;;;;;;;;4868231;29;20045;-73
2024/03/19 04:42:36;;;;;;;5.43;3.85;;;;;;;;;;4868174;29;20813;-73
2024/03/19 04:45:06;;;;;;;7.90;3.65;;;;;;;;;;4868286;29;20045;-73
2024/03/19 04:47:35;;;;;;;7.80;3.72;;;;;;;;;;4868475;29;20048;-73
2024/03/19 04:50:06;;;;;;;11.23;4.03;;;;;;;;;;4868267;29;20044;-73
2024/03/19 04:52:34;;;;;;;6.07;3.85;;;;;;;;;;4868530;29;20599;-73
2024/03/19 04:55:03;;;;;;;7.57;4.13;;;;;;;;;;4852411;29;20081;-73
2024/03/19 04:57:33;;;;;;;6.38;4.07;;;;;;;;;;4867776;29;20056;-73
2024/03/19 05:00:02;;;;;;;6.38;4.30;;;;;;;;;;4868279;29;20599;-73
2024/03/19 05:02:30;;;;;;;5.90;4.03;;;;;;;;;;4867813;29;20044;-72
2024/03/19 05:04:58;;;;;;;7.45;4.53;;;;;;;;;;4868005;29;20037;-72
2024/03/19 05:07:27;;;;;;;5.68;4.07;;;;;;;;;;4852636;29;20052;-73
2024/03/19 05:09:55;;;;;;;5.35;3.72;;;;;;;;;;4868573;29;20060;-72
2024/03/19 05:12:23;;;;;;;6.38;3.80;;;;;;;;;;4868509;29;20049;-73
2024/03/19 05:14:52;;;;;;;6.13;4.25;;;;;;;;;;4852284;29;20041;-72
2024/03/19 05:17:21;;;;;;;11.38;4.30;;;;;;;;;;4867982;29;20049;-72
2024/03/19 05:19:49;;;;;;;7.40;4.20;;;;;;;;;;4867768;29;20059;-72
2024/03/19 05:22:18;;;;;;;10.88;4.80;;;;;;;;;;4867554;29;20053;-72
2024/03/19 05:24:46;;;;;;;9.70;4.65;;;;;;;;;;4852535;29;20052;-72
2024/03/19 05:27:15;;;;;;;6.93;3.88;;;;;;;;;;4852189;29;20061;-72
2024/03/19 05:29:44;;;;;;;4.70;3.55;;;;;;;;;;4867365;29;20045;-72
2024/03/19 05:32:12;;;;;;;14.70;3.97;;;;;;;;;;4867235;29;20512;-72
2024/03/19 05:34:41;;;;;;;10.23;4.15;;;;;;;;;;4867371;29;20063;-72
2024/03/19 05:37:10;;;;;;;9.48;4.30;;;;;;;;;;4852921;29;20057;-72
2024/03/19 05:39:38;;;;;;;6.28;3.42;;;;;;;;;;4867938;29;20416;-72
2024/03/19 05:42:07;;;;;;;7.05;3.95;;;;;;;;;;4867246;29;20512;-71
2024/03/19 05:44:37;;;;;;;6.82;3.85;;;;;;;;;;4867308;29;20053;-72
2024/03/19 05:47:05;;;;;;;8.85;4.10;;;;;;;;;;4867322;29;20060;-72
2024/03/19 05:49:33;;;;;;;9.95;3.95;;;;;;;;;;4867863;29;20045;-72
2024/03/19 05:52:02;;;;;;;4.55;3.80;;;;;;;;;;4867533;29;20049;-73
2024/03/19 05:54:30;;;;;;;7.65;4.10;;;;;;;;;;4851500;29;20061;-72
2024/03/19 05:56:59;;;;;;;6.38;3.90;;;;;;;;;;4867901;29;20049;-72
2024/03/19 05:59:29;;;;;;;7.50;4.57;;;;;;;;;;4871486;29;20045;-72
2024/03/19 06:01:58;;;;;;;7.40;4.63;;;;;;;;;;4856457;29;20508;-72
2024/03/19 06:04:28;;;;;;;6.28;4.38;;;;;;;;;;4871233;29;20060;-72
2024/03/19 06:06:56;;;;;;;7.07;3.83;;;;;;;;;;4871019;29;20056;-72
2024/03/19 06:09:25;;;;;;;7.32;3.83;;;;;;;;;;4870934;29;20045;-72
2024/03/19 06:11:53;;;;;;;6.20;4.00;;;;;;;;;;4871105;29;20067;-73
2024/03/19 06:14:22;;;;;;;5.75;3.80;;;;;;;;;;4870882;29;20060;-73
2024/03/19 06:16:51;;;;;;;10.68;4.35;;;;;;;;;;4871309;29;20041;-72
2024/03/19 06:19:19;;;;;;;7.28;3.90;;;;;;;;;;4855483;29;20063;-72
2024/03/19 06:21:47;;;;;;;7.95;4.03;;;;;;;;;;4870870;29;20053;-73
2024/03/19 06:24:15;;;;;;;10.70;4.25;;;;;;;;;;4870615;29;20078;-77
2024/03/19 06:26:45;;;;;;;6.45;3.67;;;;;;;;;;4870701;29;20378;-72
2024/03/19 06:29:14;;;;;;;6.10;4.22;;;;;;;;;;4871124;29;20884;-72
2024/03/19 06:31:42;;;;;;;8.15;3.90;;;;;;;;;;4871150;29;20437;-73
2024/03/19 06:34:10;;;;;;;5.57;3.80;;;;;;;;;;4870576;29;20041;-72
2024/03/19 06:36:39;;;;;;;5.35;4.03;;;;;;;;;;4870707;29;20049;-73
2024/03/19 06:39:08;;;;;;;7.53;4.68;;;;;;;;;;4870690;29;20427;-73
2024/03/19 06:41:36;;;;;;;8.82;4.65;;;;;;;;;;4870274;29;20041;-73
2024/03/19 06:44:05;;;;;;;8.23;4.55;;;;;;;;;;4870055;29;20045;-73
2024/03/19 06:46:34;;;;;;;10.15;4.18;;;;;;;;;;4870442;29;20049;-72
2024/03/19 06:49:04;;;;;;;7.88;4.38;;;;;;;;;;4870403;29;20053;-73
2024/03/19 06:51:32;;;;;;;7.35;4.70;;;;;;;;;;4870494;29;20496;-73
2024/03/19 06:54:00;;;;;;;8.32;4.47;;;;;;;;;;4870387;29;20060;-73
2024/03/19 06:56:30;;;;;;;6.45;4.38;;;;;;;;;;4870285;29;20515;-73
2024/03/19 06:58:58;;;;;;;8.10;4.35;;;;;;;;;;4870002;29;20045;-72
2024/03/19 07:01:27;;;;;;;8.65;4.43;;;;;;;;;;4855004;29;20064;-72
2024/03/19 07:03:55;;;;;;;6.50;4.40;;;;;;;;;;4869636;29;20496;-72
2024/03/19 07:06:24;;;;;;;7.05;3.92;;;;;;;;;;4854884;29;20532;-73
2024/03/19 07:08:53;;;;;;;9.25;4.18;;;;;;;;;;4869763;29;20803;-72
2024/03/19 07:11:22;;;;;;;8.00;4.10;;;;;;;;;;4870140;29;20048;-73
2024/03/19 07:13:50;;;;;;;8.48;4.53;;;;;;;;;;4869694;29;20048;-72
2024/03/19 07:16:20;;;;;;;8.95;4.80;;;;;;;;;;4871190;29;20056;-72
2024/03/19 07:18:48;;;;;;;6.95;3.72;;;;;;;;;;4870853;29;20041;-72
2024/03/19 07:21:17;;;;;;;5.60;4.63;;;;;;;;;;4870474;29;20060;-72
2024/03/19 07:23:45;;;;;;;6.00;4.00;;;;;;;;;;4870500;29;20056;-73
2024/03/19 07:26:14;;;;;;;7.13;4.35;;;;;;;;;;4869691;29;20068;-72
2024/03/19 07:28:44;;;;;;;9.98;4.13;;;;;;;;;;4869372;29;20401;-73
2024/03/19 07:31:13;;;;;;;12.68;4.22;;;;;;;;;;4869289;29;20057;-73
2024/03/19 07:33:41;;;;;;;8.85;3.97;;;;;;;;;;4854116;29;20060;-72
2024/03/19 07:36:11;;;;;;;10.18;4.25;;;;;;;;;;4869479;29;20064;-72
2024/03/19 07:38:40;;;;;;;13.75;4.68;;;;;;;;;;4869135;29;20123;-72
2024/03/19 07:41:09;;;;;;;7.43;4.80;;;;;;;;;;4869699;29;20796;-72
2024/03/19 07:43:38;;;;;;;7.28;4.57;;;;;;;;;;4869438;29;20432;-73
2024/03/19 07:46:06;;;;;;;8.95;4.53;;;;;;;;;;4869084;29;20053;-73
2024/03/19 07:48:35;;;;;;;6.55;4.57;;;;;;;;;;4869218;29;20053;-72
2024/03/19 07:51:03;;;;;;;7.05;3.97;;;;;;;;;;4869637;29;20053;-73
2024/03/19 07:53:31;;;;;;;7.32;4.25;;;;;;;;;;4869856;29;20053;-72
2024/03/19 07:56:02;;;;;;;8.70;4.85;;;;;;;;;;4869275;29;20037;-72
2024/03/19 07:58:30;;;;;;;7.40;4.45;;;;;;;;;;4869786;29;20056;-73
2024/03/19 08:00:59;;;;;;;9.48;4.63;;;;;;;;;;4869477;29;20436;-71
2024/03/19 08:03:27;;;;;;;6.50;4.40;;;;;;;;;;4869039;29;20045;-72
2024/03/19 08:05:59;;;;;;;9.93;5.18;;;;;;;;;;4869251;29;20412;-73
2024/03/19 08:08:29;;;;;;;7.55;5.32;;;;;;;;;;4868812;29;20063;-72
2024/03/19 08:10:58;;;;;;;9.40;5.40;;;;;;;;;;4869804;29;20053;-72
2024/03/19 08:13:26;;;;;;;9.77;6.30;;;;;;;;;;4869435;29;20052;-73
2024/03/19 08:15:55;;;;;;;9.98;5.07;;;;;;;;;;4869360;29;20053;-71
2024/03/19 08:18:23;;;;;;;9.52;5.43;;;;;;;;;;4869504;29;20053;-72
2024/03/19 08:20:52;;;;;;;7.55;5.10;;;;;;;;;;4867826;29;20523;-72
2024/03/19 08:23:22;;;;;;;6.25;4.82;;;;;;;;;;4868309;29;20055;-72
2024/03/19 08:25:50;;;;;;;13.30;5.43;;;;;;;;;;4868316;29;20045;-72
2024/03/19 08:28:19;;;;;;;10.00;5.80;;;;;;;;;;4853322;29;20053;-71
2024/03/19 08:30:50;;;;;;;10.43;5.95;;;;;;;;;;4868618;29;20068;-72
2024/03/19 08:33:18;;;;;;;10.07;5.05;;;;;;;;;;4868599;29;20057;-73
2024/03/19 08:35:46;;;;;;;10.02;5.38;;;;;;;;;;4868100;29;20571;-72
2024/03/19 08:38:15;;;;;;;9.45;5.68;;;;;;;;;;4868220;29;20416;-72
2024/03/19 08:40:44;;;;;;;10.45;6.22;;;;;;;;;;4868190;29;20048;-72
2024/03/19 08:43:13;;;;;;;9.45;5.35;;;;;;;;;;4868619;29;20045;-71
2024/03/19 08:45:41;;;;;;;10.77;5.15;;;;;;;;;;4868698;29;20054;-72
2024/03/19 08:48:10;;;;;;;9.13;5.88;;;;;;;;;;4868671;29;20052;-72
2024/03/19 08:50:38;;;;;;;10.18;5.57;;;;;;;;;;4868423;29;20057;-73
2024/03/19 08:53:07;;;;;;;9.05;6.18;;;;;;;;;;4868470;29;20067;-72
2024/03/19 08:55:37;;;;;;;12.68;5.93;;;;;;;;;;4852871;29;20041;-72
2024/03/19 08:58:06;;;;;;;10.55;5.68;;;;;;;;;;4868020;29;20060;-72
2024/03/19 09:00:34;;;;;;;6.50;4.78;;;;;;;;;;4868719;29;20504;-73
2024/03/19 09:03:04;;;;;;;9.40;4.95;;;;;;;;;;4867783;29;20436;-74
2024/03/19 09:05:32;;;;;;;9.30;5.38;;;;;;;;;;4868022;29;20401;-72
2024/03/19 09:08:01;;;;;;;9.30;5.32;;;;;;;;;;4868165;29;20048;-72
2024/03/19 09:10:30;;;;;;;9.40;5.60;;;;;;;;;;4868753;29;20065;-73
2024/03/19 09:12:58;;;;;;;7.97;6.00;;;;;;;;;;4868057;29;20072;-72
2024/03/19 09:15:26;;;;;;;9.80;6.18;;;;;;;;;;4867649;29;20049;-73
2024/03/19 09:17:55;;;;;;;12.85;5.82;;;;;;;;;;4867814;29;20045;-72
2024/03/19 09:20:23;;;;;;;9.50;5.28;;;;;;;;;;4867209;29;20060;-73
2024/03/19 09:22:52;;;;;;;12.40;5.53;;;;;;;;;;4867754;29;20045;-73
2024/03/19 09:25:21;;;;;;;9.25;5.93;;;;;;;;;;4867903;29;20049;-73
2024/03/19 09:27:49;;;;;;;6.45;5.15;;;;;;;;;;4867787;29;20049;-71
2024/03/19 09:30:18;;;;;;;8.98;6.05;;;;;;;;;;4867378;29;20060;-72
2024/03/19 09:32:46;;;;;;;13.40;6.20;;;;;;;;;;4866808;29;20056;-72
2024/03/19 09:35:15;;;;;;;7.82;5.72;;;;;;;;;;4867427;29;20049;-73
2024/03/19 09:37:43;;;;;;;8.68;5.93;;;;;;;;;;4868742;29;20045;-73
2024/03/19 09:40:14;;;;;;;8.57;6.18;;;;;;;;;;4867574;29;20500;-72
2024/03/19 09:42:43;;;;;;;10.85;6.30;;;;;;;;;;4868127;29;20048;-73
2024/03/19 09:45:26;;;;;;;9.27;5.68;;;;;;;;;;4867342;29;20808;-72
2024/03/19 09:47:57;;;;;;;11.65;6.68;;;;;;;;;;4867456;29;20053;-74
2024/03/19 09:50:26;;;;;;;10.15;7.28;;;;;;;;;;4867674;29;20084;-73
2024/03/19 09:52:57;;;;;;;9.38;6.65;;;;;;;;;;4867543;29;20080;-73
2024/03/19 09:55:26;;;;;;;10.15;6.70;;;;;;;;;;4852232;29;20146;-73
2024/03/19 09:57:57;;;;;;;9.25;5.88;;;;;;;;;;4866938;29;20057;-74
2024/03/19 10:00:28;;;;;;;16.33;7.50;;;;;;;;;;4867054;29;20542;-72
2024/03/19 10:02:59;;;;;;;22.02;13.10;;;;;;;;;;4867751;29;20048;-72
2024/03/19 10:05:28;;;;;;;22.00;8.30;;;;;;;;;;4867705;29;20369;-73
2024/03/19 10:07:56;;;;;;;17.27;9.02;;;;;;;;;;4867366;29;20045;-73
2024/03/19 10:10:26;;;;;;;16.88;7.85;;;;;;;;;;4867387;29;20049;-72
2024/03/19 10:12:54;;;;;;;17.83;8.27;;;;;;;;;;4867559;29;20064;-72
2024/03/19 10:15:24;;;;;;;20.58;8.00;;;;;;;;;;4867728;29;20048;-73
2024/03/19 10:17:54;;;;;;;19.10;8.07;;;;;;;;;;4867720;29;20053;-74
2024/03/19 10:20:22;;;;;;;12.07;7.60;;;;;;;;;;4867502;29;20051;-73
2024/03/19 10:22:50;;;;;;;11.68;7.13;;;;;;;;;;4867746;29;20053;-72
2024/03/19 10:25:19;;;;;;;12.15;6.72;;;;;;;;;;4868424;29;20397;-74
2024/03/19 10:27:49;;;;;;;12.43;7.15;;;;;;;;;;4868238;29;20060;-71
2024/03/19 10:30:20;;;;;;;9.82;6.03;;;;;;;;;;4867196;29;20049;-73
2024/03/19 10:32:51;;;;;;;8.30;6.32;;;;;;;;;;4866973;29;20049;-73
2024/03/19 10:35:24;;;;;;;11.68;7.10;;;;;;;;;;4866874;29;20053;-72
2024/03/19 10:37:55;;;;;;;13.50;6.82;;;;;;;;;;4866619;29;20049;-73
2024/03/19 10:40:23;;;;;;;9.23;7.00;;;;;;;;;;4865913;29;20052;-72
2024/03/19 10:42:52;;;;;;;12.07;7.05;;;;;;;;;;4867467;29;20045;-73
2024/03/19 10:45:30;;;;;;;16.10;7.20;;;;;;;;;;4854977;29;20041;-73
2024/03/19 10:47:58;;;;;;;18.33;7.47;;;;;;;;;;4870611;29;20045;-73
2024/03/19 10:50:27;;;;;;;17.40;8.50;;;;;;;;;;4869835;29;20634;-72
2024/03/19 10:53:04;;;;;;;;;;;;;;;;;;4855565;29;20520;-72
2024/03/19 10:55:36;;;;;;;13.23;7.93;;;;;;;;;;4856313;29;19927;-73
2024/03/19 10:58:10;;;;;;;19.58;7.72;;;;;;;;;;4870819;29;20069;-73
2024/03/19 11:00:43;;;;;;;13.07;7.20;;;;;;;;;;4870742;29;20082;-73
2024/03/19 11:03:16;;;;;;;12.18;6.50;;;;;;;;;;4870908;29;20049;-80
2024/03/19 11:05:50;;;;;;;14.73;6.93;;;;;;;;;;4870302;29;20527;-73
2024/03/19 11:08:21;;;;;;;12.80;7.07;;;;;;;;;;4869852;29;20056;-73
2024/03/19 11:10:50;;;;;;;10.20;7.15;;;;;;;;;;4870272;29;20057;-73
2024/03/19 11:13:21;;;;;;;12.60;6.47;;;;;;;;;;4869722;29;20060;-73
2024/03/19 11:15:50;;;;;;;12.55;6.45;;;;;;;;;;4869736;29;20421;-73
2024/03/19 11:18:19;;;;;;;8.57;5.50;;;;;;;;;;4869688;29;20049;-73
2024/03/19 11:20:52;;;;;;;9.52;5.43;;;;;;;;;;4870515;29;20049;-73
2024/03/19 11:23:24;;;;;;;12.32;5.47;;;;;;;;;;4869546;29;20060;-73
2024/03/19 11:25:56;;;;;;;9.93;4.95;;;;;;;;;;4869368;29;20052;-73
2024/03/19 11:28:27;;;;;;;8.30;5.50;;;;;;;;;;4870148;29;20049;-77
2024/03/19 11:30:57;;;;;;;10.15;4.60;;;;;;;;;;4854521;29;20045;-74
2024/03/19 11:33:27;;;;;;;11.50;4.97;;;;;;;;;;4870052;29;20048;-73
2024/03/19 11:35:56;;;;;;;8.50;5.07;;;;;;;;;;4869057;29;20063;-73
2024/03/19 11:38:25;;;;;;;12.65;4.70;;;;;;;;;;4869318;29;20057;-73
2024/03/19 11:40:53;;;;;;;8.27;5.10;;;;;;;;;;4869520;29;20045;-73
2024/03/19 11:43:21;;;;;;;9.20;4.72;;;;;;;;;;4869866;29;20053;-74
2024/03/19 11:45:50;;;;;;;9.98;6.53;;;;;;;;;;4870125;29;20068;-73
2024/03/19 11:48:26;;;;;;;11.40;5.30;;;;;;;;;;4869874;29;20041;-73
2024/03/19 11:50:57;;;;;;;10.48;4.43;;;;;;;;;;4868828;29;20410;-73
2024/03/19 11:53:26;;;;;;;7.95;4.75;;;;;;;;;;4869121;29;20061;-74
2024/03/19 11:55:57;;;;;;;12.52;5.03;;;;;;;;;;4868270;29;20049;-73
2024/03/19 11:58:28;;;;;;;13.50;5.45;;;;;;;;;;4869962;29;20395;-73
2024/03/19 12:00:56;;;;;;;6.63;4.93;;;;;;;;;;4869978;29;20052;-77
2024/03/19 12:03:25;;;;;;;8.50;4.53;;;;;;;;;;4870364;29;20205;-73
2024/03/19 12:05:53;;;;;;;8.15;4.35;;;;;;;;;;4869750;29;20049;-73
2024/03/19 12:08:21;;;;;;;10.70;4.03;;;;;;;;;;4854384;29;20496;-73
2024/03/19 12:10:50;;;;;;;6.53;3.60;;;;;;;;;;4868925;29;20049;-73
2024/03/19 12:13:19;;;;;;;14.75;4.28;;;;;;;;;;4869655;29;20413;-73
2024/03/19 12:15:48;;;;;;;10.63;4.15;;;;;;;;;;4868674;29;20159;-76
2024/03/19 12:18:16;;;;;;;9.90;3.42;;;;;;;;;;4868916;29;20384;-73
2024/03/19 12:20:44;;;;;;;4.43;2.85;;;;;;;;;;4869006;29;20052;-74
2024/03/19 12:23:13;;;;;;;6.13;3.08;;;;;;;;;;4868818;29;20044;-74
2024/03/19 12:25:42;;;;;;;6.13;3.22;;;;;;;;;;4853918;29;20053;-75
2024/03/19 12:28:17;;;;;;;5.38;2.70;;;;;;;;;;4853190;29;20057;-73
2024/03/19 12:30:46;;;;;;;6.28;2.53;;;;;;;;;;4868931;29;20512;-75
2024/03/19 12:33:27;;;;;;;4.18;2.53;;;;;;;;;;4869197;29;20045;-74
2024/03/19 12:35:56;;;;;;;3.50;2.38;;;;;;;;;;4869930;29;20534;-73
2024/03/19 12:38:24;;;;;;;4.85;2.53;;;;;;;;;;4869245;29;20059;-73
2024/03/19 12:40:56;;;;;;;;;;;;;;;;;;4869159;29;20056;-71
2024/03/19 12:43:24;;;;;;;2.88;2.28;;;;;;;;;;4869978;29;19928;-73
2024/03/19 12:45:52;;;;;;;3.35;1.85;;;;;;;;;;4868024;29;20060;-74
2024/03/19 12:48:21;;;;;;;4.80;1.73;;;;;;;;;;4868695;29;20053;-73
2024/03/19 12:50:50;;;;;;;4.95;1.83;;;;;;;;;;4868721;29;20053;-75
2024/03/19 12:53:24;;;;;;;3.25;2.05;;;;;;;;;;4869338;29;20104;-74
2024/03/19 12:55:54;;;;;;;8.00;3.25;;;;;;;;;;4852847;29;20539;-74
2024/03/19 12:58:22;;;;;;;5.95;2.00;;;;;;;;;;4868067;29;20057;-74
2024/03/19 13:00:51;;;;;;;4.22;2.10;;;;;;;;;;4853358;29;20041;-81
2024/03/19 13:03:20;;;;;;;3.38;1.80;;;;;;;;;;4869316;29;20045;-72
2024/03/19 13:05:50;;;;;;;;;;;;;;;;;;4868634;29;20412;-76
2024/03/19 13:08:19;;;;;;;6.00;2.20;;;;;;;;;;4869824;29;19935;-74
2024/03/19 13:10:51;;;;;;;4.25;2.22;;;;;;;;;;4868090;29;20131;-74
2024/03/19 13:13:23;;;;;;;6.25;2.30;;;;;;;;;;4868291;29;20535;-74
2024/03/19 13:15:51;;;;;;;3.67;2.30;;;;;;;;;;4853967;29;20053;-81
2024/03/19 13:18:20;;;;;;;4.15;2.30;;;;;;;;;;4867845;29;20049;-73
2024/03/19 13:20:48;;;;;;;9.38;2.10;;;;;;;;;;4852600;29;20492;-73
2024/03/19 13:23:16;;;;;;;5.82;2.42;;;;;;;;;;4867782;29;20057;-72
2024/03/19 13:25:46;;;;;;;4.47;2.80;;;;;;;;;;4867985;29;20045;-72
2024/03/19 13:28:15;;;;;;;7.70;3.05;;;;;;;;;;4868719;29;20045;-72
2024/03/19 13:30:43;;;;;;;;;;;;;;;;;;4868260;29;20052;-72
2024/03/19 13:33:12;;;;;;;17.70;4.13;;;;;;;;;;4867439;29;19934;-73
2024/03/19 13:35:40;;;;;;;7.82;2.70;;;;;;;;;;4867695;29;20507;-72
2024/03/19 13:38:11;;;;;;;8.25;2.20;;;;;;;;;;4868016;29;20048;-73
2024/03/19 13:40:42;;;;;;;4.65;2.30;;;;;;;;;;4867816;29;20060;-74
2024/03/19 13:43:11;;;;;;;3.70;2.10;;;;;;;;;;4866743;29;20049;-72
2024/03/19 13:45:40;;;;;;;5.15;2.22;;;;;;;;;;4867356;29;20057;-73
2024/03/19 13:48:09;;;;;;;3.30;1.85;;;;;;;;;;4868009;29;20056;-73
2024/03/19 13:50:37;;;;;;;3.05;2.20;;;;;;;;;;4853024;29;20431;-73
2024/03/19 13:53:06;;;;;;;4.20;2.15;;;;;;;;;;4869480;29;20072;-73
2024/03/19 13:55:36;;;;;;;3.78;2.58;;;;;;;;;;4868036;29;20645;-72
2024/03/19 13:58:05;;;;;;;3.95;3.03;;;;;;;;;;4867726;29;20436;-72
2024/03/19 14:00:35;;;;;;;4.53;2.35;;;;;;;;;;4868107;29;20419;-72
2024/03/19 14:03:04;;;;;;;6.03;4.30;;;;;;;;;;4867936;29;20049;-76
2024/03/19 14:05:33;;;;;;;6.38;3.20;;;;;;;;;;4867497;29;20524;-73
2024/03/19 14:08:02;;;;;;;8.60;2.63;;;;;;;;;;4851857;29;20061;-74
2024/03/19 14:10:30;;;;;;;;;;;;;;;;;;4868021;29;20535;-74
2024/03/19 14:12:59;;;;;;;7.93;3.03;;;;;;;;;;4867466;29;19928;-74
2024/03/19 14:15:27;;;;;;;4.75;2.70;;;;;;;;;;4867035;29;20509;-73
2024/03/19 14:17:55;;;;;;;6.45;2.78;;;;;;;;;;4867913;29;20037;-73
2024/03/19 14:20:23;;;;;;;2.65;2.28;;;;;;;;;;4870818;29;20068;-73
2024/03/19 14:22:52;;;;;;;4.07;2.40;;;;;;;;;;4870732;29;20048;-73
2024/03/19 14:25:21;;;;;;;7.70;3.28;;;;;;;;;;4871676;29;20060;-72
2024/03/19 14:27:51;;;;;;;5.10;2.75;;;;;;;;;;4871185;29;20119;-73
2024/03/19 14:30:19;;;;;;;3.75;2.20;;;;;;;;;;4870434;29;20135;-75
2024/03/19 14:32:48;;;;;;;6.40;2.67;;;;;;;;;;4870770;29;20051;-72
2024/03/19 14:35:16;;;;;;;5.75;2.45;;;;;;;;;;4870723;29;20069;-72
2024/03/19 14:37:46;;;;;;;6.13;2.38;;;;;;;;;;4870614;29;20056;-72
2024/03/19 14:40:15;;;;;;;3.95;2.10;;;;;;;;;;4854833;29;20060;-72
2024/03/19 14:42:44;;;;;;;2.75;1.95;;;;;;;;;;4870620;29;20060;-74
2024/03/19 14:45:12;;;;;;;3.10;2.00;;;;;;;;;;4870699;29;20045;-72
2024/03/19 14:47:41;;;;;;;3.80;2.38;;;;;;;;;;4870431;29;20060;-73
2024/03/19 14:50:10;;;;;;;3.85;2.20;;;;;;;;;;4870332;29;20550;-73
2024/03/19 14:52:38;;;;;;;4.15;2.40;;;;;;;;;;4870184;29;20045;-74
2024/03/19 14:55:07;;;;;;;4.72;3.08;;;;;;;;;;4870241;29;20364;-73